createdAt,value
2018-09-23T00:00:50.447Z,9.30
2018-09-23T00:01:29.472Z,9.70
2018-09-23T00:02:08.299Z,7.93
2018-09-23T00:02:47.315Z,8.40
2018-09-23T00:03:26.381Z,7.83
2018-09-23T00:04:05.776Z,8.63
2018-09-23T00:04:44.591Z,7.90
2018-09-23T00:05:23.772Z,8.90
2018-09-23T00:06:02.798Z,9.47
2018-09-23T00:06:41.719Z,7.60
2018-09-23T00:07:20.797Z,7.60
2018-09-23T00:07:59.650Z,7.40
2018-09-23T00:08:38.968Z,6.90
2018-09-23T00:09:17.991Z,7.47
2018-09-23T00:09:57.526Z,7.00
2018-09-23T00:10:36.444Z,7.00
2018-09-23T00:11:15.451Z,7.27
2018-09-23T00:11:54.568Z,6.80
2018-09-23T00:12:33.873Z,7.00
2018-09-23T00:13:13.003Z,6.73
2018-09-23T00:13:51.800Z,6.73
2018-09-23T00:14:31.356Z,6.43
2018-09-23T00:15:11.226Z,7.63
2018-09-23T00:15:50.387Z,8.00
2018-09-23T00:16:29.438Z,8.93
2018-09-23T00:17:08.439Z,9.30
2018-09-23T00:17:49.055Z,10.57
2018-09-23T00:18:28.109Z,9.73
2018-09-23T00:19:07.100Z,9.33
2018-09-23T00:21:33.021Z,12.43
2018-09-23T00:22:17.153Z,11.50
2018-09-23T00:22:56.352Z,11.03
2018-09-23T00:23:35.320Z,12.60
2018-09-23T00:24:18.213Z,11.27
2018-09-23T00:25:11.214Z,11.67
2018-09-23T00:26:27.710Z,11.33
2018-09-23T00:28:32.233Z,12.43
2018-09-23T00:29:12.552Z,12.67
2018-09-23T00:29:54.232Z,12.90
2018-09-23T00:30:33.565Z,14.17
2018-09-23T00:31:40.842Z,15.20
2018-09-23T00:32:30.619Z,15.50
2018-09-23T00:33:09.369Z,14.50
2018-09-23T00:33:48.230Z,13.83
2018-09-23T00:34:30.839Z,13.30
2018-09-23T00:35:46.295Z,14.10
2018-09-23T00:36:26.159Z,14.00
2018-09-23T00:37:04.638Z,15.40
2018-09-23T00:38:53.942Z,13.27
2018-09-23T00:39:56.596Z,12.67
2018-09-23T00:40:45.319Z,11.90
2018-09-23T00:41:23.309Z,12.27
2018-09-23T00:42:08.559Z,11.87
2018-09-23T00:42:46.809Z,11.50
2018-09-23T00:43:39.867Z,11.83
2018-09-23T00:44:17.970Z,11.57
2018-09-23T00:44:56.201Z,11.07
2018-09-23T00:45:35.052Z,10.40
2018-09-23T00:46:13.165Z,8.77
2018-09-23T00:46:51.186Z,9.50
2018-09-23T00:47:29.655Z,9.10
2018-09-23T00:48:09.123Z,8.27
2018-09-23T00:48:47.028Z,7.67
2018-09-23T00:49:25.140Z,9.57
2018-09-23T00:50:03.109Z,7.70
2018-09-23T00:50:41.258Z,6.93
2018-09-23T00:51:20.732Z,7.53
2018-09-23T00:52:02.063Z,8.27
2018-09-23T00:52:57.765Z,8.40
2018-09-23T00:55:01.463Z,7.97
2018-09-23T00:59:08.001Z,6.37
2018-09-23T00:59:45.965Z,5.97
2018-09-23T01:00:23.926Z,5.83
2018-09-23T01:01:01.777Z,5.90
2018-09-23T01:01:40.185Z,5.90
2018-09-23T01:02:18.562Z,5.93
2018-09-23T01:02:56.436Z,6.43
2018-09-23T01:03:34.480Z,6.57
2018-09-23T01:05:09.805Z,5.87
2018-09-23T01:05:53.917Z,5.83
2018-09-23T01:06:34.466Z,6.93
2018-09-23T01:07:12.588Z,6.50
2018-09-23T01:08:01.026Z,6.80
2018-09-23T01:08:40.841Z,6.33
2018-09-23T01:09:23.618Z,6.30
2018-09-23T01:10:01.682Z,6.10
2018-09-23T01:10:39.913Z,6.57
2018-09-23T01:11:19.236Z,8.37
2018-09-23T01:11:57.127Z,9.20
2018-09-23T01:12:39.012Z,9.80
2018-09-23T01:13:20.335Z,9.77
2018-09-23T01:13:58.441Z,10.47
2018-09-23T01:14:36.511Z,11.00
2018-09-23T01:15:17.624Z,11.43
2018-09-23T01:15:55.868Z,13.17
2018-09-23T01:16:34.749Z,13.30
2018-09-23T01:17:13.524Z,14.50
2018-09-23T01:17:51.445Z,17.03
2018-09-23T01:18:29.445Z,15.20
2018-09-23T01:19:08.439Z,15.43
2018-09-23T01:19:48.572Z,15.40
2018-09-23T01:20:31.543Z,15.50
2018-09-23T01:21:10.605Z,15.50
2018-09-23T01:24:12.061Z,20.10
2018-09-23T01:24:52.109Z,19.23
2018-09-23T01:25:31.004Z,18.10
2018-09-23T01:26:09.113Z,18.90
2018-09-23T01:26:47.113Z,19.47
2018-09-23T01:27:25.142Z,18.87
2018-09-23T01:28:03.282Z,19.20
2018-09-23T01:28:41.506Z,18.43
2018-09-23T01:29:19.476Z,20.20
2018-09-23T01:29:57.577Z,19.00
2018-09-23T01:30:35.661Z,19.40
2018-09-23T01:31:13.629Z,18.03
2018-09-23T01:31:51.876Z,17.93
2018-09-23T01:32:29.696Z,17.80
2018-09-23T01:33:07.869Z,17.20
2018-09-23T01:33:45.828Z,15.67
2018-09-23T01:34:24.184Z,16.47
2018-09-23T01:35:02.558Z,14.67
2018-09-23T01:35:40.765Z,14.70
2018-09-23T01:36:18.668Z,13.73
2018-09-23T01:36:57.446Z,15.63
2018-09-23T01:37:35.645Z,14.67
2018-09-23T01:38:14.000Z,14.30
2018-09-23T01:38:52.364Z,12.43
2018-09-23T01:39:33.352Z,14.50
2018-09-23T01:40:11.830Z,14.60
2018-09-23T01:40:49.850Z,12.93
2018-09-23T01:41:27.869Z,13.53
2018-09-23T01:42:06.277Z,13.07
2018-09-23T01:42:44.216Z,13.50
2018-09-23T01:43:22.370Z,13.53
2018-09-23T01:44:00.277Z,11.70
2018-09-23T01:44:39.304Z,11.63
2018-09-23T01:45:17.244Z,11.90
2018-09-23T01:45:55.496Z,11.50
2018-09-23T01:46:34.801Z,11.17
2018-09-23T01:47:12.981Z,12.17
2018-09-23T01:47:52.197Z,11.67
2018-09-23T01:48:31.333Z,10.90
2018-09-23T01:49:09.442Z,11.57
2018-09-23T01:49:47.510Z,11.90
2018-09-23T01:50:25.663Z,10.20
2018-09-23T01:51:03.609Z,10.80
2018-09-23T01:51:41.760Z,11.83
2018-09-23T01:52:19.712Z,10.40
2018-09-23T01:52:57.671Z,11.30
2018-09-23T01:53:35.752Z,12.50
2018-09-23T01:54:13.777Z,12.20
2018-09-23T01:54:51.759Z,11.70
2018-09-23T01:55:29.720Z,12.43
2018-09-23T01:56:07.996Z,14.53
2018-09-23T01:56:45.999Z,13.87
2018-09-23T01:57:24.119Z,14.07
2018-09-23T01:58:02.237Z,13.13
2018-09-23T01:58:40.815Z,11.77
2018-09-23T01:59:18.825Z,13.23
2018-09-23T01:59:56.908Z,13.50
2018-09-23T02:00:35.149Z,13.00
2018-09-23T02:01:13.520Z,11.80
2018-09-23T02:01:51.765Z,13.53
2018-09-23T02:02:30.265Z,13.30
2018-09-23T02:03:08.738Z,12.20
2018-09-23T02:03:47.277Z,14.00
2018-09-23T02:04:26.185Z,12.37
2018-09-23T02:05:04.352Z,12.90
2018-09-23T02:05:42.709Z,12.80
2018-09-23T02:06:21.198Z,13.63
2018-09-23T02:06:59.568Z,14.23
2018-09-23T02:07:37.650Z,11.97
2018-09-23T02:08:15.633Z,12.40
2018-09-23T02:08:53.652Z,11.60
2018-09-23T02:09:32.732Z,11.50
2018-09-23T02:10:11.400Z,11.00
2018-09-23T02:10:50.361Z,9.83
2018-09-23T02:11:29.462Z,10.73
2018-09-23T02:12:08.100Z,10.70
2018-09-23T02:12:46.552Z,10.53
2018-09-23T02:13:25.206Z,10.50
2018-09-23T02:14:04.363Z,10.30
2018-09-23T02:14:43.016Z,9.80
2018-09-23T02:15:21.479Z,9.93
2018-09-23T02:15:59.465Z,7.53
2018-09-23T02:16:37.742Z,7.70
2018-09-23T02:17:16.208Z,7.77
2018-09-23T02:17:54.512Z,7.33
2018-09-23T02:18:33.261Z,7.07
2018-09-23T02:19:11.726Z,7.13
2018-09-23T02:19:49.705Z,6.53
2018-09-23T02:20:27.837Z,6.80
2018-09-23T02:21:05.844Z,5.93
2018-09-23T02:21:43.784Z,5.70
2018-09-23T02:22:22.002Z,6.00
2018-09-23T02:23:00.952Z,6.37
2018-09-23T02:23:39.744Z,6.00
2018-09-23T02:24:18.986Z,5.50
2018-09-23T02:24:58.455Z,5.50
2018-09-23T02:25:36.933Z,5.57
2018-09-23T02:26:15.398Z,4.90
2018-09-23T02:26:55.451Z,5.10
2018-09-23T02:27:33.501Z,4.77
2018-09-23T02:28:11.689Z,6.27
2018-09-23T02:28:49.789Z,5.13
2018-09-23T02:29:28.029Z,5.33
2018-09-23T02:30:06.070Z,4.60
2018-09-23T02:30:44.049Z,4.07
2018-09-23T02:31:22.330Z,4.43
2018-09-23T02:32:01.282Z,4.40
2018-09-23T02:32:39.512Z,4.80
2018-09-23T02:33:17.485Z,4.60
2018-09-23T02:33:55.579Z,4.70
2018-09-23T02:34:33.595Z,4.10
2018-09-23T02:35:13.385Z,3.97
2018-09-23T02:35:51.260Z,4.30
2018-09-23T02:36:29.287Z,4.30
2018-09-23T02:37:07.270Z,4.40
2018-09-23T02:37:45.312Z,4.53
2018-09-23T02:38:24.341Z,3.77
2018-09-23T02:39:02.680Z,4.47
2018-09-23T02:39:42.554Z,4.87
2018-09-23T02:40:20.613Z,4.33
2018-09-23T02:40:58.676Z,3.73
2018-09-23T02:41:36.867Z,4.93
2018-09-23T02:42:14.769Z,5.30
2018-09-23T02:42:52.719Z,4.47
2018-09-23T02:43:30.881Z,4.20
2018-09-23T02:44:10.527Z,5.10
2018-09-23T02:44:49.813Z,4.10
2018-09-23T02:45:27.743Z,4.37
2018-09-23T02:46:05.712Z,4.43
2018-09-23T02:46:43.719Z,4.90
2018-09-23T02:48:47.874Z,4.83
2018-09-23T02:49:25.908Z,5.30
2018-09-23T02:50:03.988Z,4.43
2018-09-23T02:50:41.927Z,4.20
2018-09-23T02:51:19.834Z,4.33
2018-09-23T02:51:57.741Z,4.17
2018-09-23T02:52:35.696Z,3.60
2018-09-23T02:53:13.754Z,3.90
2018-09-23T02:53:51.832Z,4.17
2018-09-23T02:54:29.763Z,4.20
2018-09-23T02:55:07.808Z,3.97
2018-09-23T02:55:45.893Z,3.70
2018-09-23T02:56:24.130Z,3.23
2018-09-23T02:57:02.048Z,3.97
2018-09-23T02:57:40.171Z,3.47
2018-09-23T02:58:18.189Z,3.80
2018-09-23T02:58:56.205Z,3.80
2018-09-23T02:59:34.118Z,4.20
2018-09-23T03:00:13.109Z,4.00
2018-09-23T03:00:51.378Z,3.47
2018-09-23T03:01:29.388Z,4.10
2018-09-23T03:02:07.405Z,4.40
2018-09-23T03:02:46.304Z,3.70
2018-09-23T03:03:25.918Z,4.13
2018-09-23T03:04:04.952Z,4.33
2018-09-23T03:04:44.690Z,4.63
2018-09-23T03:05:22.906Z,4.87
2018-09-23T03:06:01.063Z,4.63
2018-09-23T03:06:39.116Z,4.30
2018-09-23T03:07:17.173Z,4.03
2018-09-23T03:07:56.373Z,3.50
2018-09-23T03:08:34.584Z,4.23
2018-09-23T03:09:12.513Z,4.30
2018-09-23T03:09:50.597Z,4.00
2018-09-23T03:10:28.679Z,3.60
2018-09-23T03:11:07.002Z,3.77
2018-09-23T03:11:44.893Z,3.73
2018-09-23T03:12:23.019Z,3.90
2018-09-23T03:13:00.986Z,3.97
2018-09-23T03:13:39.266Z,4.37
2018-09-23T03:14:17.466Z,4.77
2018-09-23T03:14:55.336Z,4.23
2018-09-23T03:15:33.226Z,4.60
2018-09-23T03:16:11.208Z,4.17
2018-09-23T03:16:49.150Z,4.20
2018-09-23T03:17:27.070Z,3.80
2018-09-23T03:18:05.971Z,3.80
2018-09-23T03:18:43.946Z,4.27
2018-09-23T03:19:22.159Z,4.10
2018-09-23T03:20:00.228Z,5.03
2018-09-23T03:20:38.101Z,4.20
2018-09-23T03:21:16.129Z,4.40
2018-09-23T03:21:54.193Z,5.13
2018-09-23T03:22:32.340Z,4.73
2018-09-23T03:23:11.006Z,4.40
2018-09-23T03:23:48.976Z,4.40
2018-09-23T03:24:27.058Z,4.37
2018-09-23T03:25:06.573Z,5.13
2018-09-23T03:25:45.680Z,5.00
2018-09-23T03:26:23.620Z,5.17
2018-09-23T03:27:01.449Z,5.33
2018-09-23T03:27:39.382Z,5.37
2018-09-23T03:28:17.749Z,5.23
2018-09-23T03:28:55.836Z,5.50
2018-09-23T03:29:33.759Z,5.60
2018-09-23T03:30:11.657Z,5.23
2018-09-23T03:30:50.020Z,6.10
2018-09-23T03:31:27.851Z,5.53
2018-09-23T03:32:06.878Z,5.10
2018-09-23T03:32:44.774Z,4.97
2018-09-23T03:33:22.905Z,6.43
2018-09-23T03:34:00.987Z,5.10
2018-09-23T03:34:39.444Z,6.50
2018-09-23T03:35:18.909Z,5.27
2018-09-23T03:35:56.985Z,4.97
2018-09-23T03:36:35.470Z,4.60
2018-09-23T03:37:13.567Z,5.40
2018-09-23T03:37:52.026Z,5.50
2018-09-23T03:38:30.631Z,6.00
2018-09-23T03:39:09.995Z,5.03
2018-09-23T03:39:48.045Z,4.50
2018-09-23T03:40:27.847Z,5.30
2018-09-23T03:41:05.849Z,5.10
2018-09-23T03:41:43.934Z,5.90
2018-09-23T03:42:22.096Z,5.67
2018-09-23T03:43:00.611Z,5.40
2018-09-23T03:43:38.465Z,5.90
2018-09-23T03:44:17.375Z,5.53
2018-09-23T03:44:56.611Z,5.87
2018-09-23T03:45:48.423Z,5.77
2018-09-23T03:46:26.496Z,5.60
2018-09-23T03:47:04.493Z,5.03
2018-09-23T03:47:42.933Z,5.57
2018-09-23T03:48:21.229Z,4.83
2018-09-23T03:48:59.237Z,4.80
2018-09-23T03:49:37.093Z,4.47
2018-09-23T03:50:15.269Z,4.90
2018-09-23T03:50:53.271Z,3.93
2018-09-23T03:51:31.226Z,4.60
2018-09-23T03:52:09.958Z,4.63
2018-09-23T03:52:47.941Z,4.67
2018-09-23T03:53:26.167Z,4.13
2018-09-23T03:54:04.290Z,4.30
2018-09-23T03:54:42.527Z,5.00
2018-09-23T03:55:20.670Z,3.93
2018-09-23T03:55:58.848Z,4.00
2018-09-23T03:56:36.988Z,4.70
2018-09-23T03:57:14.939Z,5.13
2018-09-23T03:57:53.427Z,4.77
2018-09-23T03:58:31.538Z,4.67
2018-09-23T03:59:09.438Z,4.50
2018-09-23T03:59:47.530Z,4.03
2018-09-23T04:00:25.676Z,5.27
2018-09-23T04:01:03.545Z,4.97
2018-09-23T04:01:41.878Z,4.23
2018-09-23T04:02:19.862Z,4.77
2018-09-23T04:02:57.913Z,3.90
2018-09-23T04:03:35.834Z,3.73
2018-09-23T04:04:13.899Z,3.70
2018-09-23T04:04:51.858Z,3.40
2018-09-23T04:05:30.340Z,3.77
2018-09-23T04:06:09.362Z,3.27
2018-09-23T04:06:48.297Z,3.50
2018-09-23T04:07:26.259Z,3.60
2018-09-23T04:08:04.469Z,2.70
2018-09-23T04:08:42.539Z,3.00
2018-09-23T04:09:20.527Z,2.60
2018-09-23T04:09:59.584Z,2.30
2018-09-23T04:10:38.809Z,2.00
2018-09-23T04:11:16.816Z,2.53
2018-09-23T04:11:54.801Z,1.97
2018-09-23T04:12:33.181Z,2.37
2018-09-23T04:13:11.247Z,2.63
2018-09-23T04:13:49.148Z,2.33
2018-09-23T04:14:27.136Z,2.00
2018-09-23T04:15:05.049Z,1.90
2018-09-23T04:15:43.069Z,2.33
2018-09-23T04:16:20.957Z,2.20
2018-09-23T04:16:58.958Z,2.50
2018-09-23T04:17:37.110Z,2.10
2018-09-23T04:18:15.056Z,2.20
2018-09-23T04:18:53.016Z,2.30
2018-09-23T04:19:31.073Z,2.00
2018-09-23T04:20:09.252Z,2.10
2018-09-23T04:20:47.281Z,2.60
2018-09-23T04:21:25.184Z,1.87
2018-09-23T04:22:03.866Z,2.27
2018-09-23T04:22:47.427Z,2.60
2018-09-23T04:23:25.560Z,1.80
2018-09-23T04:24:03.468Z,2.30
2018-09-23T04:24:41.477Z,1.60
2018-09-23T04:25:21.593Z,1.80
2018-09-23T04:25:59.654Z,1.83
2018-09-23T04:26:37.599Z,1.73
2018-09-23T04:27:15.750Z,2.10
2018-09-23T04:27:53.793Z,2.63
2018-09-23T04:28:31.669Z,1.63
2018-09-23T04:29:09.589Z,2.73
2018-09-23T04:29:48.012Z,2.27
2018-09-23T04:30:26.224Z,2.07
2018-09-23T04:31:04.258Z,1.90
2018-09-23T04:31:43.329Z,1.70
2018-09-23T04:32:21.483Z,1.73
2018-09-23T04:32:59.597Z,1.70
2018-09-23T04:33:37.768Z,1.60
2018-09-23T04:34:16.161Z,2.17
2018-09-23T04:34:54.256Z,2.00
2018-09-23T04:35:32.380Z,1.70
2018-09-23T04:36:10.757Z,2.13
2018-09-23T04:36:49.057Z,1.80
2018-09-23T04:37:27.417Z,2.00
2018-09-23T04:38:05.528Z,1.80
2018-09-23T04:38:43.422Z,1.83
2018-09-23T04:39:21.664Z,1.90
2018-09-23T04:39:59.918Z,2.03
2018-09-23T04:40:38.988Z,2.40
2018-09-23T04:41:17.225Z,2.10
2018-09-23T04:41:55.199Z,2.20
2018-09-23T04:42:33.127Z,2.43
2018-09-23T04:43:11.220Z,2.10
2018-09-23T04:43:49.195Z,1.93
2018-09-23T04:44:27.175Z,2.20
2018-09-23T04:45:05.216Z,1.90
2018-09-23T04:45:43.370Z,2.70
2018-09-23T04:46:21.331Z,2.13
2018-09-23T04:46:59.511Z,1.97
2018-09-23T04:47:37.634Z,2.30
2018-09-23T04:48:16.858Z,2.07
2018-09-23T04:48:56.085Z,2.30
2018-09-23T04:49:35.914Z,1.97
2018-09-23T04:50:14.965Z,2.63
2018-09-23T04:50:53.988Z,2.40
2018-09-23T04:51:31.904Z,2.03
2018-09-23T04:52:11.088Z,2.43
2018-09-23T04:52:49.359Z,2.60
2018-09-23T04:53:27.841Z,2.50
2018-09-23T04:54:06.103Z,2.60
2018-09-23T04:54:45.233Z,2.60
2018-09-23T04:55:23.528Z,2.40
2018-09-23T04:56:04.346Z,2.67
2018-09-23T04:56:42.459Z,2.20
2018-09-23T04:57:20.549Z,2.20
2018-09-23T04:57:58.777Z,2.93
2018-09-23T04:58:36.874Z,2.30
2018-09-23T04:59:15.380Z,2.57
2018-09-23T04:59:53.228Z,2.90
2018-09-23T05:00:31.117Z,2.60
2018-09-23T05:01:09.082Z,2.50
2018-09-23T05:01:47.023Z,3.13
2018-09-23T05:02:26.180Z,2.77
2018-09-23T05:03:04.106Z,3.07
2018-09-23T05:03:42.234Z,2.67
2018-09-23T05:04:20.441Z,2.60
2018-09-23T05:04:58.346Z,2.50
2018-09-23T05:05:36.353Z,2.10
2018-09-23T05:06:14.290Z,2.90
2018-09-23T05:06:54.238Z,2.23
2018-09-23T05:07:32.849Z,2.23
2018-09-23T05:08:11.051Z,2.50
2018-09-23T05:08:49.155Z,2.20
2018-09-23T05:09:27.244Z,2.53
2018-09-23T05:10:06.211Z,2.17
2018-09-23T05:10:44.434Z,2.10
2018-09-23T05:11:22.464Z,2.10
2018-09-23T05:12:01.409Z,2.43
2018-09-23T05:12:40.365Z,2.57
2018-09-23T05:13:18.380Z,2.07
2018-09-23T05:13:57.271Z,2.37
2018-09-23T05:14:35.413Z,2.07
2018-09-23T05:15:13.582Z,2.70
2018-09-23T05:15:51.695Z,1.70
2018-09-23T05:16:31.066Z,1.87
2018-09-23T05:17:09.180Z,1.73
2018-09-23T05:17:48.284Z,2.17
2018-09-23T05:18:26.429Z,2.03
2018-09-23T05:19:05.045Z,2.17
2018-09-23T05:19:42.931Z,2.10
2018-09-23T05:20:20.765Z,2.20
2018-09-23T05:20:58.758Z,2.50
2018-09-23T05:21:36.950Z,2.10
2018-09-23T05:22:14.924Z,2.20
2018-09-23T05:22:53.864Z,2.40
2018-09-23T05:23:32.939Z,2.20
2018-09-23T05:24:11.253Z,2.10
2018-09-23T05:24:49.322Z,2.40
2018-09-23T05:25:27.257Z,1.80
2018-09-23T05:26:05.200Z,1.97
2018-09-23T05:26:43.069Z,1.97
2018-09-23T05:27:20.960Z,1.70
2018-09-23T05:27:58.894Z,1.60
2018-09-23T05:28:36.813Z,1.73
2018-09-23T05:29:14.956Z,1.80
2018-09-23T05:29:53.208Z,1.50
2018-09-23T05:30:31.327Z,1.27
2018-09-23T05:31:09.374Z,1.40
2018-09-23T05:31:47.773Z,1.87
2018-09-23T05:32:25.773Z,2.10
2018-09-23T05:33:03.691Z,1.87
2018-09-23T05:33:41.777Z,2.03
2018-09-23T05:34:19.884Z,2.00
2018-09-23T05:34:57.872Z,1.80
2018-09-23T05:35:37.823Z,2.17
2018-09-23T05:36:15.797Z,1.53
2018-09-23T05:36:53.745Z,2.10
2018-09-23T05:37:31.816Z,1.40
2018-09-23T05:38:09.711Z,1.57
2018-09-23T05:38:47.724Z,2.37
2018-09-23T05:39:25.728Z,2.07
2018-09-23T05:40:04.726Z,2.00
2018-09-23T05:40:42.633Z,1.60
2018-09-23T05:41:20.812Z,1.70
2018-09-23T05:41:58.677Z,1.93
2018-09-23T05:42:36.960Z,2.23
2018-09-23T05:43:15.981Z,1.70
2018-09-23T05:43:53.996Z,1.63
2018-09-23T05:44:32.438Z,1.80
2018-09-23T05:45:11.897Z,1.60
2018-09-23T05:45:49.897Z,1.80
2018-09-23T05:46:28.105Z,1.70
2018-09-23T05:47:06.228Z,1.40
2018-09-23T05:47:44.224Z,1.60
2018-09-23T05:48:22.487Z,2.10
2018-09-23T05:49:00.588Z,2.00
2018-09-23T05:49:39.062Z,1.97
2018-09-23T05:50:17.631Z,2.10
2018-09-23T05:50:55.898Z,1.80
2018-09-23T05:51:33.997Z,2.20
2018-09-23T05:52:12.358Z,2.20
2018-09-23T05:52:51.337Z,2.00
2018-09-23T05:53:29.482Z,1.97
2018-09-23T05:54:07.496Z,1.90
2018-09-23T05:54:45.625Z,2.03
2018-09-23T05:55:23.608Z,1.90
2018-09-23T05:56:02.574Z,1.80
2018-09-23T05:56:40.998Z,2.27
2018-09-23T05:57:19.430Z,2.00
2018-09-23T05:57:57.525Z,2.00
2018-09-23T05:58:35.641Z,1.50
2018-09-23T05:59:13.815Z,2.10
2018-09-23T05:59:52.711Z,1.60
2018-09-23T06:00:33.570Z,2.03
2018-09-23T06:01:12.375Z,2.17
2018-09-23T06:01:50.427Z,1.83
2018-09-23T06:02:28.465Z,2.03
2018-09-23T06:03:06.653Z,2.00
2018-09-23T06:03:44.745Z,1.77
2018-09-23T06:04:23.557Z,1.87
2018-09-23T06:05:01.668Z,2.00
2018-09-23T06:05:39.724Z,2.43
2018-09-23T06:06:17.863Z,2.23
2018-09-23T06:06:55.906Z,2.30
2018-09-23T06:07:34.080Z,2.20
2018-09-23T06:08:13.001Z,2.20
2018-09-23T06:08:50.925Z,2.67
2018-09-23T06:09:29.103Z,2.27
2018-09-23T06:10:07.747Z,1.90
2018-09-23T06:10:46.181Z,1.93
2018-09-23T06:11:24.508Z,2.20
2018-09-23T06:12:02.636Z,2.10
2018-09-23T06:12:40.561Z,2.20
2018-09-23T06:13:18.683Z,2.10
2018-09-23T06:13:56.756Z,1.90
2018-09-23T06:14:36.672Z,2.13
2018-09-23T06:15:15.777Z,1.77
2018-09-23T06:15:54.965Z,2.20
2018-09-23T06:16:33.178Z,2.30
2018-09-23T06:17:12.181Z,2.23
2018-09-23T06:17:50.209Z,2.30
2018-09-23T06:18:29.185Z,2.20
2018-09-23T06:19:08.822Z,2.17
2018-09-23T06:19:48.075Z,2.30
2018-09-23T06:20:25.964Z,2.20
2018-09-23T06:21:03.948Z,2.70
2018-09-23T06:21:41.858Z,2.23
2018-09-23T06:22:22.546Z,2.10
2018-09-23T06:23:01.405Z,2.17
2018-09-23T06:23:40.018Z,2.50
2018-09-23T06:24:19.631Z,1.67
2018-09-23T06:24:57.973Z,2.40
2018-09-23T06:25:36.144Z,1.60
2018-09-23T06:26:14.104Z,2.53
2018-09-23T06:26:52.845Z,1.80
2018-09-23T06:27:31.616Z,2.67
2018-09-23T06:28:12.145Z,2.30
2018-09-23T06:28:50.208Z,2.23
2018-09-23T06:29:28.201Z,2.30
2018-09-23T06:30:08.485Z,2.00
2018-09-23T06:30:47.356Z,2.10
2018-09-23T06:31:26.038Z,2.10
2018-09-23T06:32:04.406Z,2.10
2018-09-23T06:32:42.453Z,2.20
2018-09-23T06:33:20.492Z,2.20
2018-09-23T06:33:58.510Z,1.90
2018-09-23T06:34:36.575Z,2.20
2018-09-23T06:35:16.099Z,2.00
2018-09-23T06:35:54.809Z,1.73
2018-09-23T06:36:33.064Z,1.83
2018-09-23T06:37:13.501Z,1.93
2018-09-23T06:37:52.394Z,1.60
2018-09-23T06:38:30.693Z,2.10
2018-09-23T06:39:09.757Z,2.17
2018-09-23T06:39:47.784Z,2.03
2018-09-23T06:40:25.761Z,2.13
2018-09-23T06:41:03.830Z,1.90
2018-09-23T06:41:41.918Z,2.03
2018-09-23T06:42:20.616Z,1.80
2018-09-23T06:42:58.964Z,2.13
2018-09-23T06:43:37.168Z,2.00
2018-09-23T06:44:15.131Z,2.40
2018-09-23T06:44:53.505Z,1.93
2018-09-23T06:45:31.628Z,1.97
2018-09-23T06:46:10.897Z,2.30
2018-09-23T06:46:48.865Z,2.10
2018-09-23T06:47:26.913Z,1.90
2018-09-23T06:48:04.898Z,1.90
2018-09-23T06:48:42.843Z,2.40
2018-09-23T06:49:20.709Z,2.37
2018-09-23T06:49:58.851Z,2.47
2018-09-23T06:50:37.339Z,2.10
2018-09-23T06:51:15.347Z,2.40
2018-09-23T06:51:53.381Z,2.20
2018-09-23T06:52:31.578Z,2.50
2018-09-23T06:53:09.712Z,2.10
2018-09-23T06:53:47.907Z,2.17
2018-09-23T06:54:25.959Z,2.27
2018-09-23T06:55:04.608Z,2.30
2018-09-23T06:55:42.563Z,1.63
2018-09-23T06:56:20.560Z,2.03
2018-09-23T06:56:58.999Z,1.70
2018-09-23T06:57:39.879Z,2.33
2018-09-23T06:58:18.037Z,2.27
2018-09-23T06:58:56.521Z,2.13
2018-09-23T06:59:40.271Z,2.10
2018-09-23T07:00:18.273Z,3.17
2018-09-23T07:00:56.161Z,2.17
2018-09-23T07:01:35.472Z,2.77
2018-09-23T07:02:14.709Z,3.00
2018-09-23T07:02:52.866Z,3.00
2018-09-23T07:03:31.880Z,3.00
2018-09-23T07:04:09.857Z,2.40
2018-09-23T07:04:47.809Z,2.77
2018-09-23T07:05:26.070Z,2.03
2018-09-23T07:06:04.827Z,2.80
2018-09-23T07:06:43.128Z,2.47
2018-09-23T07:07:22.314Z,2.50
2018-09-23T07:08:00.474Z,2.20
2018-09-23T07:08:39.263Z,2.53
2018-09-23T07:09:18.257Z,2.23
2018-09-23T07:09:56.444Z,2.13
2018-09-23T07:10:34.546Z,2.33
2018-09-23T07:11:12.812Z,2.50
2018-09-23T07:11:55.216Z,2.33
2018-09-23T07:12:33.493Z,2.23
2018-09-23T07:13:11.776Z,2.63
2018-09-23T07:13:49.851Z,1.93
2018-09-23T07:14:27.984Z,2.87
2018-09-23T07:15:07.691Z,2.30
2018-09-23T07:18:22.839Z,2.27
2018-09-23T07:19:01.092Z,2.60
2018-09-23T07:19:39.367Z,2.60
2018-09-23T07:20:17.557Z,2.47
2018-09-23T07:20:55.618Z,2.27
2018-09-23T07:21:34.181Z,1.97
2018-09-23T07:22:15.382Z,2.43
2018-09-23T07:22:54.373Z,2.13
2018-09-23T07:23:32.363Z,2.30
2018-09-23T07:24:11.675Z,1.93
2018-09-23T07:24:49.776Z,2.53
2018-09-23T07:25:28.251Z,2.80
2018-09-23T07:26:06.371Z,2.03
2018-09-23T07:26:45.780Z,2.17
2018-09-23T07:27:24.051Z,2.63
2018-09-23T07:28:03.124Z,2.30
2018-09-23T07:28:41.464Z,2.30
2018-09-23T07:29:19.653Z,2.50
2018-09-23T07:29:59.385Z,2.00
2018-09-23T07:30:37.647Z,2.80
2018-09-23T07:31:15.834Z,2.77
2018-09-23T07:31:53.796Z,2.70
2018-09-23T07:32:32.080Z,2.43
2018-09-23T07:33:10.118Z,2.07
2018-09-23T07:33:48.246Z,2.40
2018-09-23T07:34:27.290Z,2.20
2018-09-23T07:35:05.493Z,2.30
2018-09-23T07:35:43.543Z,1.97
2018-09-23T07:36:21.637Z,2.33
2018-09-23T07:36:59.777Z,2.27
2018-09-23T07:37:38.058Z,2.00
2018-09-23T07:38:18.399Z,2.30
2018-09-23T07:38:59.235Z,2.00
2018-09-23T07:39:37.297Z,2.00
2018-09-23T07:40:15.324Z,1.93
2018-09-23T07:40:53.556Z,2.40
2018-09-23T07:41:31.853Z,1.97
2018-09-23T07:42:10.029Z,2.20
2018-09-23T07:42:47.983Z,2.50
2018-09-23T07:43:26.212Z,2.20
2018-09-23T07:44:08.511Z,1.73
2018-09-23T07:44:46.541Z,2.60
2018-09-23T07:45:33.176Z,2.67
2018-09-23T07:46:11.189Z,2.33
2018-09-23T07:46:49.082Z,2.63
2018-09-23T07:47:27.209Z,1.80
2018-09-23T07:48:05.134Z,2.57
2018-09-23T07:48:43.120Z,2.67
2018-09-23T07:49:22.120Z,2.40
2018-09-23T07:50:00.312Z,2.23
2018-09-23T07:50:38.315Z,2.40
2018-09-23T07:51:17.093Z,2.57
2018-09-23T07:51:55.806Z,2.60
2018-09-23T07:52:34.005Z,2.47
2018-09-23T07:53:12.365Z,2.57
2018-09-23T07:53:50.362Z,2.53
2018-09-23T07:54:28.702Z,2.90
2018-09-23T07:55:07.365Z,2.50
2018-09-23T07:55:45.345Z,2.50
2018-09-23T07:56:23.635Z,2.70
2018-09-23T07:57:02.812Z,2.87
2018-09-23T07:57:41.010Z,2.70
2018-09-23T07:58:19.338Z,2.87
2018-09-23T07:58:57.341Z,2.30
2018-09-23T07:59:35.469Z,3.00
2018-09-23T08:00:13.498Z,3.43
2018-09-23T08:00:51.914Z,2.93
2018-09-23T08:01:30.082Z,3.37
2018-09-23T08:02:08.811Z,2.47
2018-09-23T08:02:47.309Z,2.30
2018-09-23T08:03:25.380Z,2.70
2018-09-23T08:04:03.274Z,2.67
2018-09-23T08:04:41.370Z,2.43
2018-09-23T08:05:19.531Z,2.40
2018-09-23T08:05:59.468Z,2.50
2018-09-23T08:06:37.568Z,2.80
2018-09-23T08:07:15.529Z,2.37
2018-09-23T08:07:53.863Z,2.80
2018-09-23T08:08:32.924Z,2.13
2018-09-23T08:09:12.489Z,2.20
2018-09-23T08:09:50.541Z,2.60
2018-09-23T08:10:28.891Z,2.97
2018-09-23T08:11:08.444Z,2.70
2018-09-23T08:11:46.435Z,2.50
2018-09-23T08:12:24.416Z,2.67
2018-09-23T08:13:02.786Z,2.13
2018-09-23T08:13:40.959Z,2.60
2018-09-23T08:14:21.339Z,2.80
2018-09-23T08:15:00.457Z,3.00
2018-09-23T08:15:38.668Z,2.57
2018-09-23T08:16:19.002Z,3.43
2018-09-23T08:16:56.961Z,3.40
2018-09-23T08:17:35.906Z,3.30
2018-09-23T08:18:14.202Z,2.57
2018-09-23T08:18:52.692Z,3.10
2018-09-23T08:19:31.658Z,2.97
2018-09-23T08:20:09.871Z,2.63
2018-09-23T08:20:48.116Z,3.10
2018-09-23T08:21:26.381Z,2.67
2018-09-23T08:22:04.573Z,3.23
2018-09-23T08:22:42.722Z,2.87
2018-09-23T08:23:20.892Z,2.90
2018-09-23T08:23:59.186Z,3.00
2018-09-23T08:24:37.438Z,2.90
2018-09-23T08:25:15.512Z,3.40
2018-09-23T08:25:55.248Z,2.70
2018-09-23T08:26:33.245Z,3.43
2018-09-23T08:27:12.729Z,3.13
2018-09-23T08:27:51.146Z,2.57
2018-09-23T08:28:30.019Z,2.57
2018-09-23T08:29:08.323Z,2.87
2018-09-23T08:29:47.598Z,2.80
2018-09-23T08:30:25.564Z,2.87
2018-09-23T08:31:03.925Z,2.90
2018-09-23T08:31:48.888Z,3.30
2018-09-23T08:32:27.299Z,2.93
2018-09-23T08:33:15.117Z,2.30
2018-09-23T08:33:54.002Z,3.60
2018-09-23T08:34:40.353Z,3.13
2018-09-23T08:35:21.828Z,2.83
2018-09-23T08:36:02.168Z,3.43
2018-09-23T08:36:42.194Z,3.03
2018-09-23T08:37:24.741Z,3.97
2018-09-23T08:38:05.484Z,2.90
2018-09-23T08:38:44.039Z,3.07
2018-09-23T08:39:27.398Z,3.53
2018-09-23T08:40:10.989Z,3.87
2018-09-23T08:41:00.379Z,3.17
2018-09-23T08:41:38.832Z,2.70
2018-09-23T08:45:18.533Z,2.23
2018-09-23T08:45:56.399Z,2.37
2018-09-23T08:46:34.534Z,2.90
2018-09-23T08:47:12.547Z,2.10
2018-09-23T08:47:50.774Z,2.33
2018-09-23T08:48:29.260Z,2.60
2018-09-23T08:49:07.234Z,1.90
2018-09-23T08:49:45.276Z,2.13
2018-09-23T08:50:23.614Z,2.60
2018-09-23T08:51:01.922Z,2.37
2018-09-23T08:51:39.868Z,2.30
2018-09-23T08:52:18.709Z,2.17
2018-09-23T08:52:57.112Z,2.60
2018-09-23T08:53:35.222Z,2.37
2018-09-23T08:54:15.006Z,2.30
2018-09-23T08:54:53.503Z,2.43